White, Pennsylvania
Current Conditions -  °F | °C
As of 10:50 AM on Thursday 30 Oct 2014 (Local Time) from KLBE Reporting Station
Overcast Overcast  
Wind Chill: 37°   Ceiling: 2000
Heat Index: 43°   Visibility: 10mi
Dew Point: 39°   Wind: 9mph
Humidity: 87%   Direction: 250°WSW
Pressure: 30.12"   Gusts: NA
Location:  40.07°N, 79.44°W
Report Text: KLBE 301450Z 25008KT 10SM OVC020 06/04 A3012
Loading
Personal Weather Stations






























Interactive Weather Map
Tropical Storm Tracking
New forecast layout! Learn more

10-Day Weather Forecast

Advertisements
Track Severe Weather on mobile